YIMA weather

Imanpa Airport
Northern Territory, Australia

Public forecast

Using degrees Celsius for public forecast. Weather courtesy of forecast.io.

Closest aviation weather report (METAR) to Imanpa Airport

Closest report is Ayers Rock Connellan Airport, 86.7 nm (160.5 km) W. Retrieved 2020/01/28 08:00 UTC (2 hours ago):

YAYE 280800Z AUTO 09013KT 9999 // NCD 40/M00 Q1008

Closest aviation forecast (TAF) to Imanpa Airport

Closest forecast is Alice Springs Airport, 107.9 nm (199.8 km) NE. Retrieved 2020/01/28 06:00 UTC (4 hours ago):

TAF YBAS 280522Z 2806/2906 13014KT CAVOK FM281000 10012KT CAVOK FM281500 09006KT CAVOK FM290000 10016G26KT CAVOK